sensor_id;sensor_type;location;lat;lon;timestamp;P1;P2;P0
63707;PMS5003;67643;-34.198;22.084;2023-06-01T00:01:11;0;0;
63707;PMS5003;67643;-34.198;22.084;2023-06-01T00:03:39;0;0;
63707;PMS5003;67643;-34.198;22.084;2023-06-01T00:06:08;0;0;
63707;PMS5003;67643;-34.198;22.084;2023-06-01T00:08:36;0;0;
63707;PMS5003;67643;-34.198;22.084;2023-06-01T00:11:05;1;0;
63707;PMS5003;67643;-34.198;22.084;2023-06-01T00:13:34;1;1;
63707;PMS5003;67643;-34.198;22.084;2023-06-01T00:16:03;0;0;
63707;PMS5003;67643;-34.198;22.084;2023-06-01T00:18:32;0;0;
63707;PMS5003;67643;-34.198;22.084;2023-06-01T00:21:01;0;0;
63707;PMS5003;67643;-34.198;22.084;2023-06-01T00:23:30;0;0;
63707;PMS5003;67643;-34.198;22.084;2023-06-01T00:25:59;0;0;
63707;PMS5003;67643;-34.198;22.084;2023-06-01T00:28:28;0;0;
63707;PMS5003;67643;-34.198;22.084;2023-06-01T00:30:57;0;0;
63707;PMS5003;67643;-34.198;22.084;2023-06-01T00:33:25;0;0;
63707;PMS5003;67643;-34.198;22.084;2023-06-01T00:35:54;0;0;
63707;PMS5003;67643;-34.198;22.084;2023-06-01T00:38:22;0;0;
63707;PMS5003;67643;-34.198;22.084;2023-06-01T00:40:55;0;0;
63707;PMS5003;67643;-34.198;22.084;2023-06-01T00:43:24;0;0;
63707;PMS5003;67643;-34.198;22.084;2023-06-01T00:45:53;0;0;
63707;PMS5003;67643;-34.198;22.084;2023-06-01T00:48:21;0;0;
63707;PMS5003;67643;-34.198;22.084;2023-06-01T00:50:49;1;0;
63707;PMS5003;67643;-34.198;22.084;2023-06-01T00:53:19;0;0;
63707;PMS5003;67643;-34.198;22.084;2023-06-01T00:55:47;0;0;
63707;PMS5003;67643;-34.198;22.084;2023-06-01T00:58:16;1;0;
63707;PMS5003;67643;-34.198;22.084;2023-06-01T01:00:44;0;0;
63707;PMS5003;67643;-34.198;22.084;2023-06-01T01:03:13;0;0;
63707;PMS5003;67643;-34.198;22.084;2023-06-01T01:05:42;0;0;
63707;PMS5003;67643;-34.198;22.084;2023-06-01T01:08:13;0;0;
63707;PMS5003;67643;-34.198;22.084;2023-06-01T04:18:31;0;0;
63707;PMS5003;67643;-34.198;22.084;2023-06-01T04:21:00;0;0;
63707;PMS5003;67643;-34.198;22.084;2023-06-01T04:23:28;0;0;
63707;PMS5003;67643;-34.198;22.084;2023-06-01T04:25:57;1;0;
63707;PMS5003;67643;-34.198;22.084;2023-06-01T04:28:25;0;0;
63707;PMS5003;67643;-34.198;22.084;2023-06-01T04:30:54;0;0;
63707;PMS5003;67643;-34.198;22.084;2023-06-01T04:33:22;0;0;
63707;PMS5003;67643;-34.198;22.084;2023-06-01T04:35:51;0;0;
63707;PMS5003;67643;-34.198;22.084;2023-06-01T04:38:19;2;1;
63707;PMS5003;67643;-34.198;22.084;2023-06-01T04:40:48;0;0;
63707;PMS5003;67643;-34.198;22.084;2023-06-01T04:43:16;0;0;
63707;PMS5003;67643;-34.198;22.084;2023-06-01T04:45:45;0;0;
63707;PMS5003;67643;-34.198;22.084;2023-06-01T04:48:13;0;0;
63707;PMS5003;67643;-34.198;22.084;2023-06-01T04:50:42;0;0;
63707;PMS5003;67643;-34.198;22.084;2023-06-01T04:53:10;0;0;
63707;PMS5003;67643;-34.198;22.084;2023-06-01T04:55:39;0;0;
63707;PMS5003;67643;-34.198;22.084;2023-06-01T04:58:07;0;0;
63707;PMS5003;67643;-34.198;22.084;2023-06-01T05:00:37;0;0;
63707;PMS5003;67643;-34.198;22.084;2023-06-01T05:03:05;0;0;
63707;PMS5003;67643;-34.198;22.084;2023-06-01T05:05:34;0;0;
63707;PMS5003;67643;-34.198;22.084;2023-06-01T05:08:02;0;0;
63707;PMS5003;67643;-34.198;22.084;2023-06-01T05:10:31;0;0;
63707;PMS5003;67643;-34.198;22.084;2023-06-01T05:12:59;0;0;
63707;PMS5003;67643;-34.198;22.084;2023-06-01T05:15:28;0;0;
63707;PMS5003;67643;-34.198;22.084;2023-06-01T05:17:56;0;0;
63707;PMS5003;67643;-34.198;22.084;2023-06-01T05:20:25;1;0;
63707;PMS5003;67643;-34.198;22.084;2023-06-01T05:22:54;0;0;
63707;PMS5003;67643;-34.198;22.084;2023-06-01T05:25:22;0;0;
63707;PMS5003;67643;-34.198;22.084;2023-06-01T05:27:51;0;0;
63707;PMS5003;67643;-34.198;22.084;2023-06-01T05:30:20;0;0;
63707;PMS5003;67643;-34.198;22.084;2023-06-01T05:32:48;0;0;
63707;PMS5003;67643;-34.198;22.084;2023-06-01T05:35:16;0;0;
63707;PMS5003;67643;-34.198;22.084;2023-06-01T05:37:45;0;0;
63707;PMS5003;67643;-34.198;22.084;2023-06-01T05:40:13;0;0;
63707;PMS5003;67643;-34.198;22.084;2023-06-01T05:42:42;0;0;
63707;PMS5003;67643;-34.198;22.084;2023-06-01T05:45:10;1;0;
63707;PMS5003;67643;-34.198;22.084;2023-06-01T05:47:39;0;0;
63707;PMS5003;67643;-34.198;22.084;2023-06-01T05:50:07;0;0;
63707;PMS5003;67643;-34.198;22.084;2023-06-01T05:52:37;0;0;
63707;PMS5003;67643;-34.198;22.084;2023-06-01T05:55:05;0;0;
63707;PMS5003;67643;-34.198;22.084;2023-06-01T05:57:34;0;0;
63707;PMS5003;67643;-34.198;22.084;2023-06-01T06:00:03;0;0;
63707;PMS5003;67643;-34.198;22.084;2023-06-01T06:02:32;0;0;
63707;PMS5003;67643;-34.198;22.084;2023-06-01T06:05:01;0;0;
63707;PMS5003;67643;-34.198;22.084;2023-06-01T06:07:29;0;0;
63707;PMS5003;67643;-34.198;22.084;2023-06-01T06:09:58;0;0;
63707;PMS5003;67643;-34.198;22.084;2023-06-01T06:12:26;0;0;
63707;PMS5003;67643;-34.198;22.084;2023-06-01T06:14:54;0;0;
63707;PMS5003;67643;-34.198;22.084;2023-06-01T06:17:23;0;0;
63707;PMS5003;67643;-34.198;22.084;2023-06-01T06:19:51;0;0;
63707;PMS5003;67643;-34.198;22.084;2023-06-01T06:22:20;1;0;
63707;PMS5003;67643;-34.198;22.084;2023-06-01T06:24:49;0;0;
63707;PMS5003;67643;-34.198;22.084;2023-06-01T06:27:18;0;0;
63707;PMS5003;67643;-34.198;22.084;2023-06-01T06:29:47;0;0;
63707;PMS5003;67643;-34.198;22.084;2023-06-01T06:32:15;0;0;
63707;PMS5003;67643;-34.198;22.084;2023-06-01T06:34:44;1;1;
63707;PMS5003;67643;-34.198;22.084;2023-06-01T06:37:13;1;0;
63707;PMS5003;67643;-34.198;22.084;2023-06-01T06:39:41;0;0;
63707;PMS5003;67643;-34.198;22.084;2023-06-01T06:42:11;1;1;
63707;PMS5003;67643;-34.198;22.084;2023-06-01T06:44:40;1;1;
63707;PMS5003;67643;-34.198;22.084;2023-06-01T06:47:08;0;0;
63707;PMS5003;67643;-34.198;22.084;2023-06-01T06:49:37;1;1;
63707;PMS5003;67643;-34.198;22.084;2023-06-01T06:52:05;1;1;
63707;PMS5003;67643;-34.198;22.084;2023-06-01T06:54:36;0;0;
63707;PMS5003;67643;-34.198;22.084;2023-06-01T06:57:06;2;1;
63707;PMS5003;67643;-34.198;22.084;2023-06-01T06:59:34;5;3;
63707;PMS5003;67643;-34.198;22.084;2023-06-01T07:02:03;0;0;
63707;PMS5003;67643;-34.198;22.084;2023-06-01T07:04:32;3;2;
63707;PMS5003;67643;-34.198;22.084;2023-06-01T07:07:01;1;1;
63707;PMS5003;67643;-34.198;22.084;2023-06-01T07:09:29;3;3;
63707;PMS5003;67643;-34.198;22.084;2023-06-01T07:11:58;3;1;
63707;PMS5003;67643;-34.198;22.084;2023-06-01T07:14:26;1;1;
63707;PMS5003;67643;-34.198;22.084;2023-06-01T07:16:55;2;2;
63707;PMS5003;67643;-34.198;22.084;2023-06-01T07:19:23;4;3;
63707;PMS5003;67643;-34.198;22.084;2023-06-01T07:21:52;4;4;
63707;PMS5003;67643;-34.198;22.084;2023-06-01T07:24:21;3;3;
63707;PMS5003;67643;-34.198;22.084;2023-06-01T07:26:49;2;1;
63707;PMS5003;67643;-34.198;22.084;2023-06-01T07:29:18;4;4;
63707;PMS5003;67643;-34.198;22.084;2023-06-01T07:31:47;5;4;
63707;PMS5003;67643;-34.198;22.084;2023-06-01T07:34:17;6;5;
63707;PMS5003;67643;-34.198;22.084;2023-06-01T07:36:46;6;5;
63707;PMS5003;67643;-34.198;22.084;2023-06-01T07:39:15;4;4;
63707;PMS5003;67643;-34.198;22.084;2023-06-01T07:41:44;3;3;
63707;PMS5003;67643;-34.198;22.084;2023-06-01T07:44:13;5;4;
63707;PMS5003;67643;-34.198;22.084;2023-06-01T07:46:41;5;3;
63707;PMS5003;67643;-34.198;22.084;2023-06-01T07:49:09;3;3;
63707;PMS5003;67643;-34.198;22.084;2023-06-01T07:51:38;3;3;
63707;PMS5003;67643;-34.198;22.084;2023-06-01T07:54:06;2;2;
63707;PMS5003;67643;-34.198;22.084;2023-06-01T07:56:35;7;6;
63707;PMS5003;67643;-34.198;22.084;2023-06-01T07:59:03;4;4;
63707;PMS5003;67643;-34.198;22.084;2023-06-01T08:01:32;5;5;
63707;PMS5003;67643;-34.198;22.084;2023-06-01T08:04:00;3;2;
63707;PMS5003;67643;-34.198;22.084;2023-06-01T08:06:29;4;4;
63707;PMS5003;67643;-34.198;22.084;2023-06-01T08:08:57;5;5;
63707;PMS5003;67643;-34.198;22.084;2023-06-01T08:11:26;5;5;
63707;PMS5003;67643;-34.198;22.084;2023-06-01T08:13:55;7;7;
63707;PMS5003;67643;-34.198;22.084;2023-06-01T08:16:24;4;4;
63707;PMS5003;67643;-34.198;22.084;2023-06-01T08:18:52;2;2;
63707;PMS5003;67643;-34.198;22.084;2023-06-01T08:21:21;6;3;
63707;PMS5003;67643;-34.198;22.084;2023-06-01T08:23:49;3;2;
63707;PMS5003;67643;-34.198;22.084;2023-06-01T08:26:19;1;1;
63707;PMS5003;67643;-34.198;22.084;2023-06-01T08:28:48;4;3;
63707;PMS5003;67643;-34.198;22.084;2023-06-01T08:31:16;2;2;
63707;PMS5003;67643;-34.198;22.084;2023-06-01T08:33:45;2;2;
63707;PMS5003;67643;-34.198;22.084;2023-06-01T08:36:13;2;2;
63707;PMS5003;67643;-34.198;22.084;2023-06-01T08:38:42;2;2;
63707;PMS5003;67643;-34.198;22.084;2023-06-01T08:41:13;5;3;
63707;PMS5003;67643;-34.198;22.084;2023-06-01T08:43:54;2;2;
63707;PMS5003;67643;-34.198;22.084;2023-06-01T08:46:29;2;2;
63707;PMS5003;67643;-34.198;22.084;2023-06-01T08:48:59;1;1;
63707;PMS5003;67643;-34.198;22.084;2023-06-01T08:51:28;7;3;
63707;PMS5003;67643;-34.198;22.084;2023-06-01T08:54:00;3;2;
63707;PMS5003;67643;-34.198;22.084;2023-06-01T08:56:30;2;2;
63707;PMS5003;67643;-34.198;22.084;2023-06-01T08:58:59;2;2;
63707;PMS5003;67643;-34.198;22.084;2023-06-01T09:01:29;3;3;
63707;PMS5003;67643;-34.198;22.084;2023-06-01T09:03:58;2;2;
63707;PMS5003;67643;-34.198;22.084;2023-06-01T09:06:26;4;4;
63707;PMS5003;67643;-34.198;22.084;2023-06-01T09:08:55;3;2;
63707;PMS5003;67643;-34.198;22.084;2023-06-01T09:11:25;1;1;
63707;PMS5003;67643;-34.198;22.084;2023-06-01T09:13:53;3;3;
63707;PMS5003;67643;-34.198;22.084;2023-06-01T09:16:23;2;2;
63707;PMS5003;67643;-34.198;22.084;2023-06-01T09:19:03;0;0;
63707;PMS5003;67643;-34.198;22.084;2023-06-01T09:21:32;4;2;
63707;PMS5003;67643;-34.198;22.084;2023-06-01T09:24:17;3;2;
63707;PMS5003;67643;-34.198;22.084;2023-06-01T09:26:48;2;2;
63707;PMS5003;67643;-34.198;22.084;2023-06-01T09:29:16;1;1;
63707;PMS5003;67643;-34.198;22.084;2023-06-01T09:31:45;6;6;
63707;PMS5003;67643;-34.198;22.084;2023-06-01T09:34:15;3;2;
63707;PMS5003;67643;-34.198;22.084;2023-06-01T09:36:45;2;2;
63707;PMS5003;67643;-34.198;22.084;2023-06-01T09:39:15;3;2;
63707;PMS5003;67643;-34.198;22.084;2023-06-01T09:41:45;2;2;
63707;PMS5003;67643;-34.198;22.084;2023-06-01T09:44:22;1;1;
63707;PMS5003;67643;-34.198;22.084;2023-06-01T09:46:54;21;17;
63707;PMS5003;67643;-34.198;22.084;2023-06-01T09:49:24;28;24;
63707;PMS5003;67643;-34.198;22.084;2023-06-01T09:51:53;21;21;
63707;PMS5003;67643;-34.198;22.084;2023-06-01T09:54:37;17;16;
63707;PMS5003;67643;-34.198;22.084;2023-06-01T09:57:07;13;12;
63707;PMS5003;67643;-34.198;22.084;2023-06-01T09:59:39;10;8;
63707;PMS5003;67643;-34.198;22.084;2023-06-01T10:02:12;9;9;
63707;PMS5003;67643;-34.198;22.084;2023-06-01T10:04:44;17;14;
63707;PMS5003;67643;-34.198;22.084;2023-06-01T10:07:14;14;11;
63707;PMS5003;67643;-34.198;22.084;2023-06-01T10:09:46;10;10;
63707;PMS5003;67643;-34.198;22.084;2023-06-01T10:12:18;19;18;
63707;PMS5003;67643;-34.198;22.084;2023-06-01T12:02:36;3;3;
63707;PMS5003;67643;-34.198;22.084;2023-06-01T12:05:06;4;4;
63707;PMS5003;67643;-34.198;22.084;2023-06-01T12:07:43;5;5;
63707;PMS5003;67643;-34.198;22.084;2023-06-01T12:10:12;7;7;
63707;PMS5003;67643;-34.198;22.084;2023-06-01T12:12:42;9;9;
63707;PMS5003;67643;-34.198;22.084;2023-06-01T12:15:11;6;6;
63707;PMS5003;67643;-34.198;22.084;2023-06-01T12:17:49;8;7;
63707;PMS5003;67643;-34.198;22.084;2023-06-01T12:20:27;5;5;
63707;PMS5003;67643;-34.198;22.084;2023-06-01T12:22:57;6;4;
63707;PMS5003;67643;-34.198;22.084;2023-06-01T12:25:26;6;6;
63707;PMS5003;67643;-34.198;22.084;2023-06-01T12:28:02;6;6;
63707;PMS5003;67643;-34.198;22.084;2023-06-01T12:30:32;9;7;
63707;PMS5003;67643;-34.198;22.084;2023-06-01T12:33:01;4;4;
63707;PMS5003;67643;-34.198;22.084;2023-06-01T12:35:30;4;3;
63707;PMS5003;67643;-34.198;22.084;2023-06-01T12:38:02;8;4;
63707;PMS5003;67643;-34.198;22.084;2023-06-01T12:40:32;4;4;
63707;PMS5003;67643;-34.198;22.084;2023-06-01T12:43:01;3;3;
63707;PMS5003;67643;-34.198;22.084;2023-06-01T12:45:34;3;3;
63707;PMS5003;67643;-34.198;22.084;2023-06-01T12:48:03;4;4;
63707;PMS5003;67643;-34.198;22.084;2023-06-01T12:50:32;7;4;
63707;PMS5003;67643;-34.198;22.084;2023-06-01T12:53:09;3;3;
63707;PMS5003;67643;-34.198;22.084;2023-06-01T12:55:38;7;4;
63707;PMS5003;67643;-34.198;22.084;2023-06-01T12:58:06;6;6;
63707;PMS5003;67643;-34.198;22.084;2023-06-01T13:00:35;7;6;
63707;PMS5003;67643;-34.198;22.084;2023-06-01T13:03:04;8;5;
63707;PMS5003;67643;-34.198;22.084;2023-06-01T13:05:32;9;8;
63707;PMS5003;67643;-34.198;22.084;2023-06-01T13:08:01;8;6;
63707;PMS5003;67643;-34.198;22.084;2023-06-01T13:10:29;8;8;
63707;PMS5003;67643;-34.198;22.084;2023-06-01T13:12:58;9;8;
63707;PMS5003;67643;-34.198;22.084;2023-06-01T13:15:26;6;6;
63707;PMS5003;67643;-34.198;22.084;2023-06-01T13:17:55;9;6;
63707;PMS5003;67643;-34.198;22.084;2023-06-01T13:20:24;10;6;
63707;PMS5003;67643;-34.198;22.084;2023-06-01T13:22:52;10;9;
63707;PMS5003;67643;-34.198;22.084;2023-06-01T13:25:20;7;7;
63707;PMS5003;67643;-34.198;22.084;2023-06-01T13:27:49;4;2;
63707;PMS5003;67643;-34.198;22.084;2023-06-01T13:30:17;7;5;
63707;PMS5003;67643;-34.198;22.084;2023-06-01T13:32:46;4;4;
63707;PMS5003;67643;-34.198;22.084;2023-06-01T13:35:14;6;4;
63707;PMS5003;67643;-34.198;22.084;2023-06-01T13:37:44;1;1;
63707;PMS5003;67643;-34.198;22.084;2023-06-01T13:40:12;6;5;
63707;PMS5003;67643;-34.198;22.084;2023-06-01T13:42:40;4;4;
63707;PMS5003;67643;-34.198;22.084;2023-06-01T13:45:09;5;4;
63707;PMS5003;67643;-34.198;22.084;2023-06-01T13:47:38;4;4;
63707;PMS5003;67643;-34.198;22.084;2023-06-01T13:50:07;5;3;
63707;PMS5003;67643;-34.198;22.084;2023-06-01T13:52:36;4;4;
63707;PMS5003;67643;-34.198;22.084;2023-06-01T13:55:05;5;5;
63707;PMS5003;67643;-34.198;22.084;2023-06-01T13:57:34;6;5;
63707;PMS5003;67643;-34.198;22.084;2023-06-01T14:00:03;5;5;
63707;PMS5003;67643;-34.198;22.084;2023-06-01T14:02:32;5;4;
63707;PMS5003;67643;-34.198;22.084;2023-06-01T14:05:01;5;5;
63707;PMS5003;67643;-34.198;22.084;2023-06-01T14:07:30;7;5;
63707;PMS5003;67643;-34.198;22.084;2023-06-01T14:09:58;5;5;
63707;PMS5003;67643;-34.198;22.084;2023-06-01T14:12:27;3;2;
63707;PMS5003;67643;-34.198;22.084;2023-06-01T14:14:55;5;5;
63707;PMS5003;67643;-34.198;22.084;2023-06-01T14:17:24;5;5;
63707;PMS5003;67643;-34.198;22.084;2023-06-01T14:19:52;7;5;
63707;PMS5003;67643;-34.198;22.084;2023-06-01T14:22:21;4;4;
63707;PMS5003;67643;-34.198;22.084;2023-06-01T14:24:49;6;5;
63707;PMS5003;67643;-34.198;22.084;2023-06-01T14:27:19;6;6;
63707;PMS5003;67643;-34.198;22.084;2023-06-01T14:29:48;8;6;
63707;PMS5003;67643;-34.198;22.084;2023-06-01T14:32:17;4;4;
63707;PMS5003;67643;-34.198;22.084;2023-06-01T14:34:45;5;5;
63707;PMS5003;67643;-34.198;22.084;2023-06-01T14:37:13;5;4;
63707;PMS5003;67643;-34.198;22.084;2023-06-01T14:39:42;7;6;
63707;PMS5003;67643;-34.198;22.084;2023-06-01T14:42:11;6;6;
63707;PMS5003;67643;-34.198;22.084;2023-06-01T14:44:41;7;6;
63707;PMS5003;67643;-34.198;22.084;2023-06-01T14:47:10;4;4;
63707;PMS5003;67643;-34.198;22.084;2023-06-01T14:49:39;6;5;
63707;PMS5003;67643;-34.198;22.084;2023-06-01T14:52:08;7;6;
63707;PMS5003;67643;-34.198;22.084;2023-06-01T14:54:36;7;4;
63707;PMS5003;67643;-34.198;22.084;2023-06-01T14:57:05;5;5;
63707;PMS5003;67643;-34.198;22.084;2023-06-01T14:59:34;8;6;
63707;PMS5003;67643;-34.198;22.084;2023-06-01T15:02:02;6;6;
63707;PMS5003;67643;-34.198;22.084;2023-06-01T15:04:31;8;5;
63707;PMS5003;67643;-34.198;22.084;2023-06-01T15:07:00;15;11;
63707;PMS5003;67643;-34.198;22.084;2023-06-01T15:09:29;6;5;
63707;PMS5003;67643;-34.198;22.084;2023-06-01T15:11:57;10;7;
63707;PMS5003;67643;-34.198;22.084;2023-06-01T15:14:26;7;4;
63707;PMS5003;67643;-34.198;22.084;2023-06-01T15:16:55;7;7;
63707;PMS5003;67643;-34.198;22.084;2023-06-01T15:19:23;6;5;
63707;PMS5003;67643;-34.198;22.084;2023-06-01T15:21:52;6;4;
63707;PMS5003;67643;-34.198;22.084;2023-06-01T15:24:20;8;5;
63707;PMS5003;67643;-34.198;22.084;2023-06-01T15:26:48;8;5;
63707;PMS5003;67643;-34.198;22.084;2023-06-01T15:29:16;14;9;
63707;PMS5003;67643;-34.198;22.084;2023-06-01T15:31:45;10;8;
63707;PMS5003;67643;-34.198;22.084;2023-06-01T15:34:14;7;7;
63707;PMS5003;67643;-34.198;22.084;2023-06-01T15:36:42;14;8;
63707;PMS5003;67643;-34.198;22.084;2023-06-01T15:39:10;12;8;
63707;PMS5003;67643;-34.198;22.084;2023-06-01T15:41:38;20;14;
63707;PMS5003;67643;-34.198;22.084;2023-06-01T15:44:07;24;15;
63707;PMS5003;67643;-34.198;22.084;2023-06-01T15:46:36;19;16;
63707;PMS5003;67643;-34.198;22.084;2023-06-01T15:49:04;28;23;
63707;PMS5003;67643;-34.198;22.084;2023-06-01T15:51:33;35;28;
63707;PMS5003;67643;-34.198;22.084;2023-06-01T15:54:01;31;27;
63707;PMS5003;67643;-34.198;22.084;2023-06-01T15:56:30;27;24;
63707;PMS5003;67643;-34.198;22.084;2023-06-01T15:58:59;17;12;
63707;PMS5003;67643;-34.198;22.084;2023-06-01T16:01:28;20;15;
63707;PMS5003;67643;-34.198;22.084;2023-06-01T16:03:57;18;15;
63707;PMS5003;67643;-34.198;22.084;2023-06-01T16:06:25;31;21;
63707;PMS5003;67643;-34.198;22.084;2023-06-01T16:08:54;18;16;
63707;PMS5003;67643;-34.198;22.084;2023-06-01T16:11:22;23;15;
63707;PMS5003;67643;-34.198;22.084;2023-06-01T16:13:51;18;16;
63707;PMS5003;67643;-34.198;22.084;2023-06-01T16:16:19;19;16;
63707;PMS5003;67643;-34.198;22.084;2023-06-01T16:18:47;31;25;
63707;PMS5003;67643;-34.198;22.084;2023-06-01T16:21:16;29;24;
63707;PMS5003;67643;-34.198;22.084;2023-06-01T16:23:44;19;17;
63707;PMS5003;67643;-34.198;22.084;2023-06-01T16:26:13;27;26;
63707;PMS5003;67643;-34.198;22.084;2023-06-01T16:28:42;44;41;
63707;PMS5003;67643;-34.198;22.084;2023-06-01T16:31:10;44;37;
63707;PMS5003;67643;-34.198;22.084;2023-06-01T16:33:39;39;33;
63707;PMS5003;67643;-34.198;22.084;2023-06-01T16:36:09;34;30;
63707;PMS5003;67643;-34.198;22.084;2023-06-01T16:38:37;39;35;
63707;PMS5003;67643;-34.198;22.084;2023-06-01T16:41:05;33;31;
63707;PMS5003;67643;-34.198;22.084;2023-06-01T16:43:34;42;37;
63707;PMS5003;67643;-34.198;22.084;2023-06-01T16:46:02;28;23;
63707;PMS5003;67643;-34.198;22.084;2023-06-01T16:48:30;36;34;
63707;PMS5003;67643;-34.198;22.084;2023-06-01T16:50:59;46;38;
63707;PMS5003;67643;-34.198;22.084;2023-06-01T16:53:27;28;27;
63707;PMS5003;67643;-34.198;22.084;2023-06-01T16:55:56;49;41;
63707;PMS5003;67643;-34.198;22.084;2023-06-01T16:58:24;31;28;
63707;PMS5003;67643;-34.198;22.084;2023-06-01T17:00:53;30;24;
63707;PMS5003;67643;-34.198;22.084;2023-06-01T17:03:22;23;19;
63707;PMS5003;67643;-34.198;22.084;2023-06-01T17:05:51;27;24;
63707;PMS5003;67643;-34.198;22.084;2023-06-01T17:08:19;29;27;
63707;PMS5003;67643;-34.198;22.084;2023-06-01T17:10:48;27;26;
63707;PMS5003;67643;-34.198;22.084;2023-06-01T17:13:17;38;34;
63707;PMS5003;67643;-34.198;22.084;2023-06-01T17:15:45;29;24;
63707;PMS5003;67643;-34.198;22.084;2023-06-01T17:18:13;30;26;
63707;PMS5003;67643;-34.198;22.084;2023-06-01T17:20:42;21;20;
63707;PMS5003;67643;-34.198;22.084;2023-06-01T17:23:11;25;20;
63707;PMS5003;67643;-34.198;22.084;2023-06-01T17:25:39;17;16;
63707;PMS5003;67643;-34.198;22.084;2023-06-01T17:28:08;21;20;
63707;PMS5003;67643;-34.198;22.084;2023-06-01T17:30:37;22;21;
63707;PMS5003;67643;-34.198;22.084;2023-06-01T17:33:05;27;20;
63707;PMS5003;67643;-34.198;22.084;2023-06-01T17:35:34;17;15;
63707;PMS5003;67643;-34.198;22.084;2023-06-01T17:38:02;17;14;
63707;PMS5003;67643;-34.198;22.084;2023-06-01T17:40:31;16;13;
63707;PMS5003;67643;-34.198;22.084;2023-06-01T17:42:59;13;10;
63707;PMS5003;67643;-34.198;22.084;2023-06-01T17:45:28;10;10;
63707;PMS5003;67643;-34.198;22.084;2023-06-01T17:47:56;9;7;
63707;PMS5003;67643;-34.198;22.084;2023-06-01T17:50:25;15;11;
63707;PMS5003;67643;-34.198;22.084;2023-06-01T17:52:53;19;17;
63707;PMS5003;67643;-34.198;22.084;2023-06-01T17:55:22;21;17;
63707;PMS5003;67643;-34.198;22.084;2023-06-01T17:57:50;18;15;
63707;PMS5003;67643;-34.198;22.084;2023-06-01T18:00:19;25;24;
63707;PMS5003;67643;-34.198;22.084;2023-06-01T20:12:07;10;8;
63707;PMS5003;67643;-34.198;22.084;2023-06-01T20:14:35;7;7;
63707;PMS5003;67643;-34.198;22.084;2023-06-01T20:17:05;7;5;
63707;PMS5003;67643;-34.198;22.084;2023-06-01T20:19:33;10;6;
63707;PMS5003;67643;-34.198;22.084;2023-06-01T20:22:02;8;7;
63707;PMS5003;67643;-34.198;22.084;2023-06-01T20:24:30;6;5;
63707;PMS5003;67643;-34.198;22.084;2023-06-01T20:26:59;6;6;
63707;PMS5003;67643;-34.198;22.084;2023-06-01T20:29:29;11;7;
63707;PMS5003;67643;-34.198;22.084;2023-06-01T20:31:59;5;5;
63707;PMS5003;67643;-34.198;22.084;2023-06-01T20:34:29;7;6;
63707;PMS5003;67643;-34.198;22.084;2023-06-01T20:36:58;7;5;
63707;PMS5003;67643;-34.198;22.084;2023-06-01T20:39:28;5;5;
63707;PMS5003;67643;-34.198;22.084;2023-06-01T20:41:56;6;5;
63707;PMS5003;67643;-34.198;22.084;2023-06-01T20:44:25;7;5;
63707;PMS5003;67643;-34.198;22.084;2023-06-01T20:46:58;6;4;
63707;PMS5003;67643;-34.198;22.084;2023-06-01T20:49:27;6;5;
63707;PMS5003;67643;-34.198;22.084;2023-06-01T20:51:55;9;6;
63707;PMS5003;67643;-34.198;22.084;2023-06-01T20:54:25;8;5;
63707;PMS5003;67643;-34.198;22.084;2023-06-01T20:56:55;6;5;
63707;PMS5003;67643;-34.198;22.084;2023-06-01T20:59:25;3;3;
63707;PMS5003;67643;-34.198;22.084;2023-06-01T21:01:55;6;6;
63707;PMS5003;67643;-34.198;22.084;2023-06-01T21:04:25;5;4;
63707;PMS5003;67643;-34.198;22.084;2023-06-01T21:06:54;5;5;
63707;PMS5003;67643;-34.198;22.084;2023-06-01T21:09:24;5;5;
63707;PMS5003;67643;-34.198;22.084;2023-06-01T21:11:54;10;6;
63707;PMS5003;67643;-34.198;22.084;2023-06-01T21:14:24;6;6;
63707;PMS5003;67643;-34.198;22.084;2023-06-01T21:16:52;4;4;
63707;PMS5003;67643;-34.198;22.084;2023-06-01T21:19:21;7;5;
63707;PMS5003;67643;-34.198;22.084;2023-06-01T21:21:49;5;5;
63707;PMS5003;67643;-34.198;22.084;2023-06-01T21:24:17;5;5;
63707;PMS5003;67643;-34.198;22.084;2023-06-01T21:26:46;4;4;
63707;PMS5003;67643;-34.198;22.084;2023-06-01T21:29:14;10;8;
63707;PMS5003;67643;-34.198;22.084;2023-06-01T21:31:43;3;3;
63707;PMS5003;67643;-34.198;22.084;2023-06-01T21:34:11;13;6;
63707;PMS5003;67643;-34.198;22.084;2023-06-01T21:36:40;6;5;
63707;PMS5003;67643;-34.198;22.084;2023-06-01T21:39:10;5;4;
63707;PMS5003;67643;-34.198;22.084;2023-06-01T21:41:38;5;5;
63707;PMS5003;67643;-34.198;22.084;2023-06-01T21:44:07;8;6;
63707;PMS5003;67643;-34.198;22.084;2023-06-01T21:46:35;8;5;
63707;PMS5003;67643;-34.198;22.084;2023-06-01T21:49:04;9;5;
63707;PMS5003;67643;-34.198;22.084;2023-06-01T21:51:32;8;7;
63707;PMS5003;67643;-34.198;22.084;2023-06-01T21:54:01;6;6;
63707;PMS5003;67643;-34.198;22.084;2023-06-01T21:56:29;7;7;
63707;PMS5003;67643;-34.198;22.084;2023-06-01T21:58:58;4;4;
63707;PMS5003;67643;-34.198;22.084;2023-06-01T22:01:27;4;3;
63707;PMS5003;67643;-34.198;22.084;2023-06-01T22:14:45;7;6;
63707;PMS5003;67643;-34.198;22.084;2023-06-01T22:17:13;4;4;
63707;PMS5003;67643;-34.198;22.084;2023-06-01T22:19:42;6;5;
63707;PMS5003;67643;-34.198;22.084;2023-06-01T22:22:10;5;5;
63707;PMS5003;67643;-34.198;22.084;2023-06-01T22:24:39;10;7;
63707;PMS5003;67643;-34.198;22.084;2023-06-01T22:27:07;4;4;
63707;PMS5003;67643;-34.198;22.084;2023-06-01T22:29:36;7;7;
63707;PMS5003;67643;-34.198;22.084;2023-06-01T22:32:05;7;4;
63707;PMS5003;67643;-34.198;22.084;2023-06-01T22:34:34;7;5;
63707;PMS5003;67643;-34.198;22.084;2023-06-01T22:37:03;7;5;
63707;PMS5003;67643;-34.198;22.084;2023-06-01T22:39:33;5;5;
63707;PMS5003;67643;-34.198;22.084;2023-06-01T22:42:02;4;3;
63707;PMS5003;67643;-34.198;22.084;2023-06-01T22:44:30;6;4;
63707;PMS5003;67643;-34.198;22.084;2023-06-01T22:46:58;11;11;
63707;PMS5003;67643;-34.198;22.084;2023-06-01T22:49:27;16;9;
63707;PMS5003;67643;-34.198;22.084;2023-06-01T22:51:57;8;5;
63707;PMS5003;67643;-34.198;22.084;2023-06-01T22:54:25;8;6;
63707;PMS5003;67643;-34.198;22.084;2023-06-01T22:56:54;6;6;
63707;PMS5003;67643;-34.198;22.084;2023-06-01T22:59:22;5;5;
63707;PMS5003;67643;-34.198;22.084;2023-06-01T23:01:51;11;10;
63707;PMS5003;67643;-34.198;22.084;2023-06-01T23:04:20;5;4;
63707;PMS5003;67643;-34.198;22.084;2023-06-01T23:06:48;6;6;
63707;PMS5003;67643;-34.198;22.084;2023-06-01T23:09:17;6;4;
63707;PMS5003;67643;-34.198;22.084;2023-06-01T23:11:46;8;6;
63707;PMS5003;67643;-34.198;22.084;2023-06-01T23:14:14;5;4;
63707;PMS5003;67643;-34.198;22.084;2023-06-01T23:16:43;9;6;
63707;PMS5003;67643;-34.198;22.084;2023-06-01T23:19:12;5;5;
63707;PMS5003;67643;-34.198;22.084;2023-06-01T23:21:43;6;6;
63707;PMS5003;67643;-34.198;22.084;2023-06-01T23:24:12;8;7;
63707;PMS5003;67643;-34.198;22.084;2023-06-01T23:26:41;10;7;
63707;PMS5003;67643;-34.198;22.084;2023-06-01T23:29:09;17;11;
63707;PMS5003;67643;-34.198;22.084;2023-06-01T23:31:38;5;5;
63707;PMS5003;67643;-34.198;22.084;2023-06-01T23:34:09;9;8;
63707;PMS5003;67643;-34.198;22.084;2023-06-01T23:36:38;7;6;
63707;PMS5003;67643;-34.198;22.084;2023-06-01T23:39:07;9;6;